Richfield, UT

9:06 AM MDT on August 21, 2014 (GMT -0600)
Rotary Park | Change Station
CLOSE
Current Station
Personal Weather Station
Location: Richfield, UT
Elevation: 5433 ft
Nearby Weather Stations

Elev 5433 ft 38.76 °N, 112.10 °W | Updated 29 seconds ago

Clear
Clear
62.6 °F
Feels Like 62.6 °F
N
0.0
Wind Variable Wind from South
Gusts 0.7 mph

Today
High -- | Low -- °F
--% Chance of Precip.
Yesterday
High -- | Low -- °F
Precip. -- in
6:47 AM 8:14 PM
Waning Crescent, 14% visible
Pressure 29.97 in
Visibility 10.0 miles
Clouds Clear
Dew Point 50 °F
Humidity 63%
Rainfall 0.00 in
Snow Depth 1 in
UV 2 out of 12
Pollen 8.10 out of 12
Air Quality Not available.
Flu Activity Not available.
METAR KMLF 211452Z AUTO 20011KT 10SM CLR 19/08 A3014 RMK AO2 SLP147 T01940083 53011

More Conditions Fewer Conditions

Pressure 29.97 in
Visibility 10.0 miles
Clouds Clear
Dew Point 50 °F
Humidity 63%
Rainfall 0.00 in
Snow Depth 1 in
UV 2 out of 12
Pollen 8.10 out of 12
Air Quality Not available.
Flu Activity Not available.
METAR KMLF 211452Z AUTO 20011KT 10SM CLR 19/08 A3014 RMK AO2 SLP147 T01940083 53011

More Conditions Fewer Conditions

10-Day Weather Forecast

Almanac

Astronomy

Aug. 21, 2014 Rise Set
Actual Time 6:47 AM MDT 8:14 PM MDT
Civil Twilight 6:19 AM MDT 8:42 PM MDT
Nautical Twilight 5:46 AM MDT 9:15 PM MDT
Astronomical Twilight 5:10 AM MDT 9:51 PM MDT
Moon 3:22 AM MDT 5:45 PM MDT
Length of Visible Light 14h 22m
Length of Day
13h 26m
Tomorrow will be 2m 19s shorter.
Waning Crescent, 14% of the Moon is Illuminated
Today
Waning Crescent
Aug 25
New
Sep 2
First Quarter
Sep 8
Full
Sep 15
Last Quarter

Today's Extremes

State Highs State Lows

Community

WunderPhotos

Upload Photos

1,745,945 photos uploaded!

Nearby

Snow Depth

Station Depth Elevation
Box Creek 1 in 9800 ft
Farnsworth Lake 0 in 9600 ft
Kimberly Mine 0 in 9300 ft
Black Flat-U.M. Creek 0 in 9400 ft
Merchant Valley 0 in 8750 ft

Earthquake Activity

City Distance Mag. Time & Date
No recent earthquake activity has been reported nearby.
Minimum magnitude displayed is 2.5.

Coastal Water Temperatures

Place Temperature
No Stations Reporting

Nearby Weather Stations